createdAt,value
2018-02-21T00:00:35.636Z,52.37
2018-02-21T00:03:03.192Z,48.37
2018-02-21T00:05:30.736Z,44.77
2018-02-21T00:07:58.490Z,47.97
2018-02-21T00:10:26.075Z,44.30
2018-02-21T00:12:53.603Z,44.50
2018-02-21T00:15:21.127Z,50.93
2018-02-21T00:17:48.667Z,42.27
2018-02-21T00:20:17.073Z,49.50
2018-02-21T00:22:44.626Z,46.53
2018-02-21T00:25:12.180Z,42.70
2018-02-21T00:27:39.712Z,43.63
2018-02-21T00:30:07.256Z,44.97
2018-02-21T00:32:34.797Z,46.87
2018-02-21T00:35:02.344Z,46.57
2018-02-21T00:37:29.884Z,42.97
2018-02-21T00:39:57.392Z,43.97
2018-02-21T00:42:24.936Z,41.80
2018-02-21T00:44:52.458Z,45.13
2018-02-21T00:47:19.977Z,44.40
2018-02-21T00:49:47.523Z,51.50
2018-02-21T00:52:15.090Z,44.67
2018-02-21T00:54:42.592Z,41.10
2018-02-21T00:57:10.130Z,42.53
2018-02-21T00:59:37.669Z,46.90
2018-02-21T01:02:05.208Z,44.00
2018-02-21T01:04:32.733Z,46.60
2018-02-21T01:07:00.278Z,40.67
2018-02-21T01:09:27.821Z,44.73
2018-02-21T01:11:55.340Z,49.33
2018-02-21T01:14:22.886Z,49.10
2018-02-21T01:16:50.400Z,44.97
2018-02-21T01:19:17.946Z,41.13
2018-02-21T01:21:45.493Z,39.40
2018-02-21T01:24:13.011Z,46.30
2018-02-21T01:26:40.563Z,41.70
2018-02-21T01:29:08.077Z,47.87
2018-02-21T01:31:35.889Z,45.13
2018-02-21T01:34:03.451Z,48.60
2018-02-21T01:36:30.980Z,42.27
2018-02-21T01:38:58.528Z,41.60
2018-02-21T01:41:26.088Z,38.57
2018-02-21T01:43:53.697Z,41.73
2018-02-21T01:46:21.234Z,41.60
2018-02-21T01:48:48.789Z,43.07
2018-02-21T01:51:16.309Z,44.10
2018-02-21T01:53:43.832Z,43.50
2018-02-21T01:56:11.403Z,39.53
2018-02-21T01:58:38.923Z,45.07
2018-02-21T02:01:06.453Z,43.70
2018-02-21T02:03:33.982Z,43.13
2018-02-21T02:06:01.534Z,45.73
2018-02-21T02:08:29.115Z,36.57
2018-02-21T02:10:56.679Z,43.87
2018-02-21T02:13:24.204Z,45.30
2018-02-21T02:15:51.759Z,42.67
2018-02-21T02:18:19.283Z,56.90
2018-02-21T02:20:46.805Z,54.40
2018-02-21T02:23:14.354Z,44.20
2018-02-21T02:25:41.865Z,61.70
2018-02-21T02:28:09.429Z,43.23
2018-02-21T02:30:36.963Z,54.80
2018-02-21T02:33:04.510Z,46.60
2018-02-21T02:35:32.012Z,38.93
2018-02-21T02:37:59.842Z,45.40
2018-02-21T02:40:27.410Z,45.97
2018-02-21T02:42:54.958Z,45.83
2018-02-21T02:45:22.537Z,42.37
2018-02-21T02:47:50.070Z,51.40
2018-02-21T02:50:17.605Z,46.60
2018-02-21T02:52:45.139Z,42.13
2018-02-21T02:55:12.666Z,43.80
2018-02-21T02:57:40.216Z,44.43
2018-02-21T03:00:07.738Z,47.90
2018-02-21T03:02:35.539Z,51.97
2018-02-21T03:05:03.302Z,49.40
2018-02-21T03:07:30.842Z,42.90
2018-02-21T03:09:58.377Z,57.80
2018-02-21T03:12:25.924Z,46.50
2018-02-21T03:14:53.764Z,49.30
2018-02-21T03:17:21.376Z,45.70
2018-02-21T03:19:48.878Z,37.50
2018-02-21T03:22:16.389Z,49.80
2018-02-21T03:24:43.986Z,45.50
2018-02-21T03:27:11.514Z,48.87
2018-02-21T03:29:39.087Z,49.40
2018-02-21T03:32:06.619Z,51.57
2018-02-21T03:34:34.224Z,46.13
2018-02-21T03:37:01.801Z,51.20
2018-02-21T03:39:29.314Z,42.80
2018-02-21T03:41:57.126Z,51.83
2018-02-21T03:44:24.658Z,44.80
2018-02-21T03:46:52.446Z,49.03
2018-02-21T03:49:19.983Z,48.10
2018-02-21T03:51:47.506Z,61.27
2018-02-21T03:54:15.177Z,39.37
2018-02-21T03:56:42.775Z,50.00
2018-02-21T03:59:10.326Z,55.90
2018-02-21T04:01:37.843Z,44.23
2018-02-21T04:04:05.372Z,45.23
2018-02-21T04:06:32.962Z,52.90
2018-02-21T04:09:00.500Z,48.47
2018-02-21T04:11:28.257Z,45.40
2018-02-21T04:13:56.046Z,44.30
2018-02-21T04:16:23.600Z,50.80
2018-02-21T04:18:51.132Z,40.70
2018-02-21T04:21:18.686Z,44.90
2018-02-21T04:23:46.235Z,55.83
2018-02-21T04:26:13.774Z,57.73
2018-02-21T04:28:41.457Z,66.77
2018-02-21T04:31:09.007Z,64.13
2018-02-21T04:33:36.514Z,51.40
2018-02-21T04:36:04.098Z,52.77
2018-02-21T04:38:31.615Z,47.53
2018-02-21T04:40:59.396Z,45.03
2018-02-21T04:43:26.944Z,59.80
2018-02-21T04:45:54.481Z,44.93
2018-02-21T04:48:22.049Z,44.57
2018-02-21T04:50:49.846Z,53.20
2018-02-21T04:53:17.396Z,49.50
2018-02-21T04:58:55.564Z,90.63
2018-02-21T05:01:23.096Z,65.97
2018-02-21T05:03:50.965Z,128.23
2018-02-21T05:06:18.515Z,92.30
2018-02-21T05:08:46.296Z,172.40
2018-02-21T05:11:13.843Z,135.27
2018-02-21T05:13:41.429Z,114.90
2018-02-21T05:16:08.999Z,53.23
2018-02-21T05:18:36.547Z,117.27
2018-02-21T05:21:04.140Z,444.57
2018-02-21T05:23:31.685Z,354.17
2018-02-21T05:25:59.553Z,343.97
2018-02-21T05:28:27.057Z,298.67
2018-02-21T05:30:54.958Z,419.90
2018-02-21T05:33:22.478Z,524.17
2018-02-21T05:35:50.029Z,449.70
2018-02-21T05:38:17.595Z,533.80
2018-02-21T05:40:45.138Z,412.40
2018-02-21T05:43:12.718Z,280.47
2018-02-21T05:45:40.524Z,456.57
2018-02-21T05:48:08.041Z,548.80
2018-02-21T05:50:35.598Z,416.17
2018-02-21T05:53:03.425Z,277.80
2018-02-21T05:55:30.991Z,287.60
2018-02-21T05:57:58.518Z,384.53
2018-02-21T06:00:26.125Z,262.83
2018-02-21T06:02:53.674Z,227.30
2018-02-21T06:05:21.301Z,320.07
2018-02-21T06:07:48.863Z,475.83
2018-02-21T06:10:16.422Z,232.67
2018-02-21T06:12:43.946Z,216.30
2018-02-21T06:15:11.543Z,149.43
2018-02-21T06:17:39.096Z,144.20
2018-02-21T06:20:06.664Z,218.27
2018-02-21T06:22:34.221Z,252.27
2018-02-21T06:25:01.809Z,225.50
2018-02-21T06:27:29.320Z,82.67
2018-02-21T06:29:56.878Z,77.77
2018-02-21T06:32:24.419Z,59.00
2018-02-21T06:34:51.967Z,68.20
2018-02-21T06:37:19.544Z,44.97
2018-02-21T06:39:47.474Z,52.03
2018-02-21T06:42:15.021Z,47.97
2018-02-21T06:44:42.545Z,49.13
2018-02-21T06:47:10.061Z,52.60
2018-02-21T06:49:37.919Z,41.13
2018-02-21T06:52:05.462Z,55.07
2018-02-21T06:54:33.049Z,55.83
2018-02-21T06:57:00.597Z,47.40
2018-02-21T06:59:28.366Z,53.53
2018-02-21T07:01:55.927Z,52.83
2018-02-21T07:04:23.814Z,48.83
2018-02-21T07:06:51.357Z,51.10
2018-02-21T07:09:19.123Z,49.90
2018-02-21T07:11:46.653Z,42.87
2018-02-21T07:14:14.243Z,45.83
2018-02-21T07:16:41.771Z,55.67
2018-02-21T07:19:09.291Z,55.23
2018-02-21T07:21:36.826Z,47.60
2018-02-21T07:24:04.382Z,53.50
2018-02-21T07:26:31.981Z,52.97
2018-02-21T07:28:59.502Z,48.37
2018-02-21T07:31:27.402Z,47.63
2018-02-21T07:33:55.602Z,48.77
2018-02-21T07:36:23.167Z,42.80
2018-02-21T07:38:50.681Z,50.60
2018-02-21T07:41:18.231Z,51.27
2018-02-21T07:43:45.795Z,48.13
2018-02-21T07:46:13.330Z,53.60
2018-02-21T07:48:40.896Z,45.93
2018-02-21T07:51:08.452Z,45.83
2018-02-21T07:53:36.017Z,46.00
2018-02-21T07:56:03.588Z,49.60
2018-02-21T07:58:31.368Z,44.47
2018-02-21T08:00:58.949Z,59.20
2018-02-21T08:03:26.786Z,53.73
2018-02-21T08:05:54.341Z,53.43
2018-02-21T08:08:21.854Z,47.73
2018-02-21T08:10:49.428Z,66.97
2018-02-21T08:13:16.951Z,54.67
2018-02-21T08:15:44.466Z,64.43
2018-02-21T08:18:12.024Z,51.20
2018-02-21T08:20:39.583Z,59.33
2018-02-21T08:23:07.142Z,70.37
2018-02-21T08:25:34.701Z,52.10
2018-02-21T08:28:02.246Z,62.30
2018-02-21T08:30:29.801Z,50.60
2018-02-21T08:32:57.622Z,45.67
2018-02-21T08:35:25.488Z,55.60
2018-02-21T08:37:53.008Z,45.20
2018-02-21T08:40:20.656Z,48.50
2018-02-21T08:42:48.216Z,47.93
2018-02-21T08:45:15.749Z,53.03
2018-02-21T08:47:43.277Z,51.53
2018-02-21T08:50:10.868Z,45.40
2018-02-21T08:52:38.398Z,55.47
2018-02-21T08:55:06.192Z,49.20
2018-02-21T08:57:33.792Z,45.27
2018-02-21T09:00:01.353Z,48.67
2018-02-21T09:02:28.914Z,52.00
2018-02-21T09:04:56.434Z,44.90
2018-02-21T09:07:24.012Z,43.87
2018-02-21T09:09:51.543Z,42.57
2018-02-21T09:12:19.337Z,58.87
2018-02-21T09:14:46.872Z,49.10
2018-02-21T09:17:14.407Z,53.53
2018-02-21T09:19:41.957Z,44.67
2018-02-21T09:22:09.501Z,46.97
2018-02-21T09:24:37.052Z,45.43
2018-02-21T09:27:04.559Z,46.40
2018-02-21T09:29:32.361Z,48.30
2018-02-21T09:31:59.936Z,45.43
2018-02-21T09:34:27.460Z,51.87
2018-02-21T09:36:55.012Z,47.63
2018-02-21T09:39:22.530Z,41.97
2018-02-21T09:41:50.053Z,42.97
2018-02-21T09:44:17.906Z,49.33
2018-02-21T09:46:45.445Z,49.07
2018-02-21T09:49:13.085Z,48.33
2018-02-21T09:51:40.662Z,48.00
2018-02-21T09:54:08.180Z,46.47
2018-02-21T09:56:35.819Z,46.23
2018-02-21T09:59:03.355Z,46.47
2018-02-21T10:01:30.944Z,56.80
2018-02-21T10:03:58.506Z,48.73
2018-02-21T10:06:26.420Z,41.87
2018-02-21T10:08:53.931Z,42.10
2018-02-21T10:11:21.787Z,43.97
2018-02-21T10:13:49.558Z,48.57
2018-02-21T10:16:17.111Z,43.10
2018-02-21T10:18:44.983Z,51.63
2018-02-21T10:21:12.850Z,75.90
2018-02-21T10:23:40.395Z,49.70
2018-02-21T10:26:07.934Z,43.43
2018-02-21T10:28:35.466Z,45.43
2018-02-21T10:31:03.046Z,43.60
2018-02-21T10:33:30.684Z,37.60
2018-02-21T10:35:58.529Z,35.83
2018-02-21T10:38:26.072Z,69.33
2018-02-21T10:40:53.670Z,41.87
2018-02-21T10:43:21.240Z,50.63
2018-02-21T10:45:48.768Z,37.53
2018-02-21T10:48:16.329Z,51.67
2018-02-21T10:50:43.831Z,59.77
2018-02-21T10:53:11.973Z,36.00
2018-02-21T10:55:39.494Z,42.37
2018-02-21T10:58:07.054Z,38.40
2018-02-21T11:00:40.294Z,34.27
2018-02-21T11:03:07.839Z,38.57
2018-02-21T11:05:35.366Z,38.47
2018-02-21T11:08:02.921Z,35.97
2018-02-21T11:10:30.573Z,31.93
2018-02-21T11:12:58.128Z,29.90
2018-02-21T11:15:25.648Z,33.00
2018-02-21T11:17:53.199Z,33.97
2018-02-21T11:20:20.705Z,25.73
2018-02-21T11:22:48.526Z,29.30
2018-02-21T11:25:16.055Z,37.80
2018-02-21T11:27:43.678Z,32.30
2018-02-21T11:30:11.198Z,30.30
2018-02-21T11:32:38.778Z,27.63
2018-02-21T11:35:06.315Z,30.93
2018-02-21T11:37:34.091Z,30.17
2018-02-21T11:40:01.895Z,24.70
2018-02-21T11:42:29.424Z,29.93
2018-02-21T11:44:56.962Z,28.00
2018-02-21T11:47:24.495Z,28.73
2018-02-21T11:49:52.077Z,26.60
2018-02-21T11:52:19.679Z,26.43
2018-02-21T11:54:47.189Z,28.33
2018-02-21T11:57:14.754Z,25.57
2018-02-21T11:59:42.299Z,26.40
2018-02-21T12:02:09.861Z,26.30
2018-02-21T12:04:37.439Z,26.33
2018-02-21T12:07:04.961Z,31.13
2018-02-21T12:09:32.523Z,23.53
2018-02-21T12:12:00.079Z,28.03
2018-02-21T12:14:27.682Z,28.03
2018-02-21T12:16:55.575Z,25.93
2018-02-21T12:19:23.364Z,24.73
2018-02-21T12:21:50.889Z,29.53
2018-02-21T12:24:18.455Z,33.73
2018-02-21T12:26:46.028Z,27.87
2018-02-21T12:29:13.579Z,25.63
2018-02-21T12:31:41.639Z,28.33
2018-02-21T12:34:09.212Z,37.27
2018-02-21T12:36:36.739Z,25.50
2018-02-21T12:39:09.854Z,26.13
2018-02-21T12:41:43.277Z,24.93
2018-02-21T12:44:11.137Z,24.83
2018-02-21T12:46:38.657Z,28.87
2018-02-21T12:49:06.197Z,26.90
2018-02-21T12:51:33.722Z,23.90
2018-02-21T12:54:01.320Z,27.80
2018-02-21T12:56:28.833Z,26.40
2018-02-21T12:58:56.806Z,26.67
2018-02-21T13:01:24.334Z,23.77
2018-02-21T13:03:51.894Z,29.57
2018-02-21T13:06:19.426Z,29.20
2018-02-21T13:08:46.954Z,21.90
2018-02-21T13:11:15.609Z,26.00
2018-02-21T13:13:43.157Z,26.97
2018-02-21T13:16:10.781Z,25.10
2018-02-21T13:18:38.308Z,21.43
2018-02-21T13:21:05.849Z,27.70
2018-02-21T13:23:33.486Z,22.50
2018-02-21T13:26:01.044Z,19.67
2018-02-21T13:28:28.620Z,19.23
2018-02-21T13:30:56.172Z,24.43
2018-02-21T13:33:23.706Z,24.33
2018-02-21T13:35:51.346Z,25.10
2018-02-21T13:38:18.908Z,23.30
2018-02-21T13:40:46.802Z,20.33
2018-02-21T13:43:14.638Z,19.30
2018-02-21T13:45:42.190Z,21.17
2018-02-21T13:48:09.704Z,23.33
2018-02-21T13:50:38.670Z,21.87
2018-02-21T13:53:06.198Z,22.53
2018-02-21T13:55:33.756Z,17.13
2018-02-21T13:58:01.317Z,26.17
2018-02-21T14:00:28.917Z,19.23
2018-02-21T14:02:56.906Z,28.33
2018-02-21T14:05:24.567Z,20.00
2018-02-21T14:07:52.120Z,41.30
2018-02-21T14:10:19.686Z,20.53
2018-02-21T14:12:47.233Z,16.63
2018-02-21T14:15:14.801Z,18.47
2018-02-21T14:17:42.338Z,18.27
2018-02-21T14:20:09.861Z,20.67
2018-02-21T14:22:37.470Z,24.50
2018-02-21T14:25:05.025Z,19.63
2018-02-21T14:27:32.989Z,22.93
2018-02-21T14:30:00.531Z,21.37
2018-02-21T14:32:28.064Z,19.97
2018-02-21T14:34:55.683Z,21.37
2018-02-21T14:37:23.208Z,23.53
2018-02-21T14:39:50.750Z,21.73
2018-02-21T14:42:18.261Z,22.80
2018-02-21T14:44:45.869Z,22.53
2018-02-21T14:47:13.521Z,21.47
2018-02-21T14:49:41.343Z,24.43
2018-02-21T14:52:08.898Z,25.63
2018-02-21T14:54:36.457Z,22.63
2018-02-21T14:57:04.232Z,23.37
2018-02-21T14:59:31.779Z,20.77
2018-02-21T15:01:59.317Z,24.80
2018-02-21T15:04:26.845Z,20.47
2018-02-21T15:06:54.395Z,21.90
2018-02-21T15:09:22.232Z,36.70
2018-02-21T15:11:49.792Z,18.40
2018-02-21T15:14:17.329Z,26.13
2018-02-21T15:16:44.894Z,25.47
2018-02-21T15:19:12.410Z,38.23
2018-02-21T15:21:39.961Z,18.40
2018-02-21T15:24:07.485Z,22.10
2018-02-21T15:26:35.076Z,20.30
2018-02-21T15:29:02.610Z,40.57
2018-02-21T15:31:30.918Z,27.70
2018-02-21T15:33:58.448Z,25.03
2018-02-21T15:36:25.982Z,25.13
2018-02-21T15:38:53.582Z,28.97
2018-02-21T15:41:21.161Z,23.90
2018-02-21T15:43:48.663Z,27.57
2018-02-21T15:46:16.200Z,25.20
2018-02-21T15:48:43.785Z,30.00
2018-02-21T15:51:11.337Z,28.50
2018-02-21T15:53:38.859Z,22.13
2018-02-21T15:56:06.631Z,33.20
2018-02-21T15:58:34.197Z,27.70
2018-02-21T16:01:01.793Z,25.90
2018-02-21T16:03:29.343Z,37.70
2018-02-21T16:05:56.925Z,30.90
2018-02-21T16:08:24.489Z,29.43
2018-02-21T16:10:52.125Z,27.17
2018-02-21T16:13:19.656Z,23.90
2018-02-21T16:15:47.215Z,26.07
2018-02-21T16:18:14.774Z,22.60
2018-02-21T16:20:42.305Z,28.43
2018-02-21T16:23:10.184Z,32.90
2018-02-21T16:25:37.722Z,26.87
2018-02-21T16:28:05.306Z,41.60
2018-02-21T16:30:32.830Z,24.03
2018-02-21T16:33:00.367Z,29.77
2018-02-21T16:35:27.952Z,21.87
2018-02-21T16:37:55.523Z,27.20
2018-02-21T16:40:23.340Z,26.87
2018-02-21T16:42:51.145Z,23.03
2018-02-21T16:45:18.730Z,27.07
2018-02-21T16:47:46.317Z,28.63
2018-02-21T16:50:13.851Z,22.70
2018-02-21T16:52:41.453Z,23.50
2018-02-21T16:55:08.983Z,20.97
2018-02-21T16:57:36.564Z,23.90
2018-02-21T17:00:04.106Z,30.10
2018-02-21T17:02:31.686Z,24.07
2018-02-21T17:04:59.226Z,18.40
2018-02-21T17:07:26.818Z,23.20
2018-02-21T17:09:54.371Z,25.67
2018-02-21T17:12:22.218Z,21.67
2018-02-21T17:14:49.797Z,25.07
2018-02-21T17:17:17.526Z,23.13
2018-02-21T17:19:45.083Z,41.03
2018-02-21T17:22:12.659Z,31.63
2018-02-21T17:24:40.194Z,20.87
2018-02-21T17:27:07.839Z,23.10
2018-02-21T17:29:35.388Z,21.43
2018-02-21T17:32:03.126Z,23.57
2018-02-21T17:34:31.116Z,21.00
2018-02-21T17:36:58.813Z,25.80
2018-02-21T17:39:26.389Z,27.67
2018-02-21T17:41:54.016Z,25.40
2018-02-21T17:44:21.558Z,24.73
2018-02-21T17:46:49.395Z,30.47
2018-02-21T17:49:16.983Z,24.37
2018-02-21T17:51:44.589Z,28.63
2018-02-21T17:54:12.267Z,30.47
2018-02-21T17:56:40.190Z,25.10
2018-02-21T17:59:08.021Z,26.30
2018-02-21T18:01:35.558Z,23.57
2018-02-21T18:04:03.389Z,27.10
2018-02-21T18:06:31.136Z,29.77
2018-02-21T18:08:58.772Z,30.93
2018-02-21T18:11:26.523Z,33.50
2018-02-21T18:13:54.115Z,27.30
2018-02-21T18:16:21.863Z,29.87
2018-02-21T18:18:49.607Z,31.20
2018-02-21T18:21:22.876Z,33.83
2018-02-21T18:23:50.430Z,26.60
2018-02-21T18:26:18.260Z,31.23
2018-02-21T18:28:45.846Z,27.00
2018-02-21T18:31:13.748Z,31.10
2018-02-21T18:33:41.290Z,23.17
2018-02-21T18:36:08.908Z,28.63
2018-02-21T18:38:36.411Z,27.27
2018-02-21T18:41:03.919Z,29.73
2018-02-21T18:43:31.491Z,27.87
2018-02-21T18:45:59.171Z,30.73
2018-02-21T18:48:26.755Z,34.83
2018-02-21T18:50:54.593Z,26.47
2018-02-21T18:53:22.141Z,29.77
2018-02-21T18:55:49.690Z,27.47
2018-02-21T18:58:17.468Z,29.30
2018-02-21T19:00:45.027Z,30.43
2018-02-21T19:03:12.602Z,29.90
2018-02-21T19:05:40.455Z,31.93
2018-02-21T19:08:07.970Z,28.67
2018-02-21T19:10:35.490Z,29.63
2018-02-21T19:13:03.049Z,33.03
2018-02-21T19:15:30.608Z,40.80
2018-02-21T19:17:58.167Z,31.00
2018-02-21T19:20:25.753Z,27.60
2018-02-21T19:22:53.877Z,27.03
2018-02-21T19:25:21.429Z,32.40
2018-02-21T19:27:48.967Z,30.97
2018-02-21T19:30:16.538Z,32.77
2018-02-21T19:32:44.104Z,28.67
2018-02-21T19:35:11.728Z,32.77
2018-02-21T19:37:39.299Z,29.60
2018-02-21T19:40:06.885Z,31.27
2018-02-21T19:42:34.480Z,34.90
2018-02-21T19:45:02.019Z,27.50
2018-02-21T19:47:29.625Z,33.37
2018-02-21T19:49:57.156Z,33.53
2018-02-21T19:52:24.702Z,33.43
2018-02-21T19:54:52.266Z,33.00
2018-02-21T19:57:19.799Z,30.00
2018-02-21T19:59:47.358Z,39.80
2018-02-21T20:02:14.948Z,26.17
2018-02-21T20:04:42.577Z,33.60
2018-02-21T20:07:10.221Z,28.93
2018-02-21T20:09:38.178Z,25.40
2018-02-21T20:12:05.744Z,26.10
2018-02-21T20:14:33.878Z,27.03
2018-02-21T20:17:02.234Z,25.10
2018-02-21T20:19:30.616Z,26.63
2018-02-21T20:21:58.203Z,26.43
2018-02-21T20:24:25.782Z,25.77
2018-02-21T20:26:53.318Z,25.37
2018-02-21T20:29:20.869Z,25.80
2018-02-21T20:31:48.396Z,23.93
2018-02-21T20:34:15.950Z,23.90
2018-02-21T20:36:43.486Z,20.70
2018-02-21T20:39:11.042Z,23.93
2018-02-21T20:41:38.606Z,23.00
2018-02-21T20:44:06.174Z,23.47
2018-02-21T20:46:33.723Z,30.33
2018-02-21T20:49:01.308Z,32.57
2018-02-21T20:51:28.879Z,20.70
2018-02-21T20:53:56.405Z,24.90
2018-02-21T20:56:23.941Z,18.67
2018-02-21T20:58:51.549Z,20.57
2018-02-21T21:01:19.096Z,18.43
2018-02-21T21:03:46.857Z,21.53
2018-02-21T21:06:14.620Z,19.23
2018-02-21T21:08:42.196Z,21.67
2018-02-21T21:11:09.876Z,20.73
2018-02-21T21:13:39.462Z,22.33
2018-02-21T21:16:07.063Z,22.57
2018-02-21T21:18:34.610Z,22.50
2018-02-21T21:21:02.729Z,22.67
2018-02-21T21:23:34.438Z,23.70
2018-02-21T21:26:02.887Z,20.87
2018-02-21T21:28:30.858Z,20.10
2018-02-21T21:30:58.431Z,23.20
2018-02-21T21:33:25.977Z,20.30
2018-02-21T21:35:53.880Z,22.23
2018-02-21T21:38:21.511Z,30.60
2018-02-21T21:40:49.031Z,24.73
2018-02-21T21:43:16.558Z,22.33
2018-02-21T21:45:44.164Z,20.77
2018-02-21T21:48:11.978Z,24.00
2018-02-21T21:50:39.922Z,21.87
2018-02-21T21:53:07.458Z,22.57
2018-02-21T21:55:35.027Z,22.23
2018-02-21T21:58:02.621Z,28.33
2018-02-21T22:00:30.184Z,26.67
2018-02-21T22:02:57.810Z,27.77
2018-02-21T22:05:25.392Z,19.73
2018-02-21T22:07:52.984Z,25.10
2018-02-21T22:10:20.505Z,23.60
2018-02-21T22:12:48.029Z,20.17
2018-02-21T22:15:15.787Z,22.20
2018-02-21T22:17:43.442Z,27.67
2018-02-21T22:20:11.083Z,23.63
2018-02-21T22:22:38.652Z,23.03
2018-02-21T22:25:06.511Z,21.70
2018-02-21T22:27:34.059Z,26.10
2018-02-21T22:30:01.571Z,21.77
2018-02-21T22:32:29.386Z,24.97
2018-02-21T22:34:57.271Z,23.20
2018-02-21T22:37:24.861Z,30.53
2018-02-21T22:39:52.423Z,26.73
2018-02-21T22:42:19.964Z,24.80
2018-02-21T22:44:49.212Z,35.93
2018-02-21T22:47:17.072Z,23.80
2018-02-21T22:49:44.678Z,27.73
2018-02-21T22:52:12.242Z,29.97
2018-02-21T22:54:40.653Z,28.50
2018-02-21T22:57:08.705Z,25.70
2018-02-21T22:59:37.800Z,27.40
2018-02-21T23:02:05.370Z,27.13
2018-02-21T23:04:33.052Z,25.10
2018-02-21T23:07:00.629Z,31.13
2018-02-21T23:09:28.741Z,25.20
2018-02-21T23:11:56.271Z,26.67
2018-02-21T23:14:24.992Z,25.03
2018-02-21T23:16:52.522Z,26.63
2018-02-21T23:19:20.117Z,26.57
2018-02-21T23:21:47.761Z,30.50
2018-02-21T23:24:15.306Z,31.07
2018-02-21T23:26:42.896Z,26.00
2018-02-21T23:29:10.538Z,24.60
2018-02-21T23:31:38.079Z,24.10
2018-02-21T23:34:05.727Z,24.10
2018-02-21T23:36:33.260Z,26.97
2018-02-21T23:39:00.876Z,26.73
2018-02-21T23:41:28.569Z,31.03
2018-02-21T23:43:56.197Z,27.90
2018-02-21T23:46:23.738Z,29.30
2018-02-21T23:48:51.255Z,30.83
2018-02-21T23:51:18.868Z,28.20
2018-02-21T23:53:46.438Z,29.90
2018-02-21T23:56:14.222Z,28.17
2018-02-21T23:58:41.743Z,27.87
